createdAt,value
2019-03-18T00:32:57.600Z,49.30
2019-03-18T00:35:48.566Z,52.90
2019-03-18T00:38:19.250Z,51.83
2019-03-18T00:40:50.382Z,50.70
2019-03-18T00:43:20.925Z,46.83
2019-03-18T00:45:51.639Z,47.50
2019-03-18T00:48:22.360Z,48.52
2019-03-18T00:50:53.257Z,46.83
2019-03-18T00:53:23.918Z,45.03
2019-03-18T00:58:44.892Z,46.92
2019-03-18T01:01:16.433Z,42.30
2019-03-18T01:03:47.076Z,42.95
2019-03-18T01:06:18.174Z,41.80
2019-03-18T01:08:48.839Z,40.73
2019-03-18T01:11:19.469Z,43.42
2019-03-18T01:13:50.945Z,42.08
2019-03-18T01:16:21.942Z,41.92
2019-03-18T01:18:55.416Z,43.70
2019-03-18T01:21:26.112Z,41.50
2019-03-18T01:26:47.069Z,42.67
2019-03-18T01:29:17.743Z,42.50
2019-03-18T01:31:48.374Z,41.60
2019-03-18T01:34:19.154Z,40.52
2019-03-18T01:36:49.831Z,41.08
2019-03-18T01:39:20.458Z,41.02
2019-03-18T01:41:51.436Z,39.03
2019-03-18T01:44:22.132Z,38.80
2019-03-18T01:46:52.954Z,40.03
2019-03-18T01:49:23.821Z,40.03
2019-03-18T01:51:54.519Z,39.95
2019-03-18T01:54:25.229Z,39.10
2019-03-18T01:56:56.109Z,39.42
2019-03-18T01:59:26.796Z,37.73
2019-03-18T02:01:57.523Z,38.45
2019-03-18T02:04:28.423Z,40.17
2019-03-18T02:06:59.279Z,38.70
2019-03-18T02:09:29.863Z,36.80
2019-03-18T02:12:01.983Z,37.42
2019-03-18T02:14:32.651Z,38.42
2019-03-18T02:17:03.281Z,38.95
2019-03-18T02:19:44.469Z,37.50
2019-03-18T02:22:15.265Z,39.53
2019-03-18T02:24:45.982Z,36.73
2019-03-18T02:27:28.887Z,36.93
2019-03-18T02:29:59.675Z,36.48
2019-03-18T02:32:30.196Z,36.77
2019-03-18T02:35:00.890Z,36.90
2019-03-18T02:37:31.755Z,38.48
2019-03-18T02:40:02.426Z,38.60
2019-03-18T02:42:33.135Z,35.85
2019-03-18T02:45:03.953Z,35.90
2019-03-18T02:47:34.392Z,37.67
2019-03-18T02:50:05.650Z,37.70
2019-03-18T02:52:36.531Z,35.52
2019-03-18T02:55:07.945Z,36.17
2019-03-18T02:57:38.891Z,33.83
2019-03-18T03:00:12.602Z,35.13
2019-03-18T03:02:43.370Z,35.30
2019-03-18T03:05:16.049Z,36.75
2019-03-18T03:08:07.196Z,35.33
2019-03-18T03:10:38.003Z,35.30
2019-03-18T03:13:55.588Z,40.08
2019-03-18T03:18:57.831Z,35.13
2019-03-18T03:21:29.237Z,34.78
2019-03-18T03:24:00.581Z,36.45
2019-03-18T03:26:31.582Z,35.50
2019-03-18T03:29:02.418Z,40.17
2019-03-18T03:31:32.809Z,36.08
2019-03-18T03:34:03.602Z,42.95
2019-03-18T03:36:40.466Z,36.50
2019-03-18T03:39:10.775Z,37.20
2019-03-18T03:41:41.747Z,35.68
2019-03-18T03:44:12.808Z,35.85
2019-03-18T03:46:44.149Z,36.10
2019-03-18T03:49:15.153Z,36.75
2019-03-18T03:51:45.794Z,37.25
2019-03-18T03:54:20.153Z,36.98
2019-03-18T03:56:51.135Z,36.30
2019-03-18T03:59:21.747Z,37.33
2019-03-18T04:01:52.274Z,36.90
2019-03-18T04:04:25.717Z,35.30
2019-03-18T04:06:56.375Z,35.70
2019-03-18T04:09:27.274Z,36.20
2019-03-18T04:11:57.942Z,34.70
2019-03-18T04:14:28.669Z,36.75
2019-03-18T04:17:02.993Z,37.53
2019-03-18T04:19:31.728Z,36.55
2019-03-18T04:22:02.918Z,35.35
2019-03-18T04:24:33.690Z,35.88
2019-03-18T04:27:04.418Z,36.50
2019-03-18T04:29:35.315Z,36.63
2019-03-18T04:32:05.993Z,38.73
2019-03-18T04:34:36.710Z,39.10
2019-03-18T04:37:07.591Z,38.28
2019-03-18T04:39:37.986Z,37.85
2019-03-18T04:42:08.381Z,38.30
2019-03-18T04:44:39.177Z,52.38
2019-03-18T04:47:14.560Z,37.95
2019-03-18T04:49:42.542Z,38.83
2019-03-18T04:52:12.930Z,41.23
2019-03-18T04:54:43.536Z,41.98
2019-03-18T04:57:14.423Z,42.67
2019-03-18T04:59:45.055Z,41.42
2019-03-18T05:02:17.059Z,39.78
2019-03-18T05:04:47.990Z,38.88
2019-03-18T05:07:18.752Z,39.18
2019-03-18T05:09:49.434Z,39.50
2019-03-18T05:12:20.362Z,39.27
2019-03-18T05:14:51.031Z,39.33
2019-03-18T05:17:26.647Z,37.15
2019-03-18T05:19:53.957Z,36.25
2019-03-18T05:22:25.048Z,36.15
2019-03-18T05:24:56.343Z,37.60
2019-03-18T05:27:28.047Z,36.42
2019-03-18T05:29:58.736Z,34.85
2019-03-18T05:35:19.566Z,35.85
2019-03-18T05:37:50.285Z,36.75
2019-03-18T05:40:21.007Z,34.88
2019-03-18T05:42:51.915Z,34.58
2019-03-18T05:45:22.567Z,35.92
2019-03-18T05:47:53.308Z,34.18
2019-03-18T05:50:24.701Z,34.08
2019-03-18T05:52:56.854Z,36.05
2019-03-18T05:55:27.582Z,34.75
2019-03-18T05:57:58.518Z,34.27
2019-03-18T06:00:29.339Z,33.92
2019-03-18T06:03:00.068Z,35.15
2019-03-18T06:05:30.911Z,33.02
2019-03-18T06:08:01.526Z,33.40
2019-03-18T06:10:32.421Z,34.25
2019-03-18T06:13:03.250Z,34.53
2019-03-18T06:15:34.025Z,32.67
2019-03-18T06:18:04.907Z,34.90
2019-03-18T06:20:35.563Z,33.40
2019-03-18T06:23:06.635Z,33.55
2019-03-18T06:25:37.695Z,34.60
2019-03-18T06:28:09.003Z,35.55
2019-03-18T06:30:41.351Z,33.60
2019-03-18T06:33:24.330Z,34.78
2019-03-18T06:35:55.153Z,34.10
2019-03-18T06:38:25.815Z,35.58
2019-03-18T06:40:57.315Z,36.58
2019-03-18T06:43:28.246Z,35.75
2019-03-18T06:45:59.010Z,35.03
2019-03-18T06:48:29.730Z,32.75
2019-03-18T06:51:01.070Z,31.23
2019-03-18T06:53:31.642Z,30.08
2019-03-18T06:56:02.314Z,31.55
2019-03-18T06:58:33.311Z,31.05
2019-03-18T07:01:03.971Z,31.05
2019-03-18T07:03:34.694Z,30.97
2019-03-18T07:06:05.604Z,32.00
2019-03-18T07:08:36.261Z,31.75
2019-03-18T07:11:07.142Z,34.15
2019-03-18T07:13:38.590Z,33.25
2019-03-18T07:16:09.246Z,32.58
2019-03-18T07:18:40.223Z,34.33
2019-03-18T07:21:11.037Z,34.48
2019-03-18T07:23:43.616Z,34.60
2019-03-18T07:26:14.416Z,33.45
2019-03-18T07:28:45.087Z,38.05
2019-03-18T07:31:15.837Z,32.93
2019-03-18T07:33:47.874Z,32.78
2019-03-18T07:36:18.575Z,31.95
2019-03-18T07:38:49.286Z,34.65
2019-03-18T07:41:20.774Z,35.03
2019-03-18T07:43:51.468Z,31.97
2019-03-18T07:46:22.363Z,30.77
2019-03-18T07:48:53.019Z,31.05
2019-03-18T07:51:23.756Z,33.53
2019-03-18T07:53:55.017Z,32.98
2019-03-18T07:56:25.742Z,32.05
2019-03-18T07:58:56.398Z,30.20
2019-03-18T08:01:27.050Z,31.82
2019-03-18T08:03:57.927Z,31.93
2019-03-18T08:06:28.708Z,30.00
2019-03-18T08:08:59.607Z,30.80
2019-03-18T08:11:30.264Z,28.55
2019-03-18T08:14:01.138Z,31.85
2019-03-18T08:16:31.832Z,29.37
2019-03-18T08:19:04.320Z,33.63
2019-03-18T08:21:34.982Z,30.08
2019-03-18T08:24:07.071Z,32.50
2019-03-18T08:26:37.727Z,30.52
2019-03-18T08:29:08.354Z,29.35
2019-03-18T08:31:39.139Z,29.50
2019-03-18T08:34:09.838Z,29.55
2019-03-18T08:36:40.545Z,34.83
2019-03-18T08:39:11.524Z,32.98
2019-03-18T08:41:42.326Z,30.08
2019-03-18T08:44:13.049Z,31.80
2019-03-18T08:46:43.931Z,33.08
2019-03-18T08:49:14.594Z,30.37
2019-03-18T08:51:45.326Z,28.50
2019-03-18T08:54:18.031Z,28.38
2019-03-18T08:56:48.626Z,28.50
2019-03-18T08:59:23.899Z,27.75
2019-03-18T09:01:56.126Z,29.07
2019-03-18T09:04:26.791Z,30.55
2019-03-18T09:06:57.515Z,27.80
2019-03-18T09:09:28.418Z,29.35
2019-03-18T09:11:59.078Z,27.75
2019-03-18T09:14:29.807Z,31.50
2019-03-18T09:17:00.703Z,28.60
2019-03-18T09:19:32.624Z,31.15
2019-03-18T09:22:03.379Z,28.42
2019-03-18T09:24:34.688Z,29.82
2019-03-18T09:27:05.495Z,28.83
2019-03-18T09:29:36.147Z,31.73
2019-03-18T09:32:07.127Z,28.73
2019-03-18T09:34:37.840Z,27.87
2019-03-18T09:37:08.573Z,27.93
2019-03-18T09:39:39.459Z,29.40
2019-03-18T09:42:10.119Z,29.52
2019-03-18T09:44:40.864Z,28.70
2019-03-18T09:47:11.743Z,31.15
2019-03-18T09:49:42.412Z,32.55
2019-03-18T09:52:13.036Z,32.53
2019-03-18T09:54:43.799Z,28.45
2019-03-18T09:57:25.470Z,30.37
2019-03-18T09:59:47.188Z,29.72
2019-03-18T10:02:17.855Z,28.50
2019-03-18T10:04:48.556Z,29.70
2019-03-18T10:07:19.380Z,30.88
2019-03-18T10:09:49.766Z,29.37
2019-03-18T10:12:20.327Z,31.55
2019-03-18T10:14:50.958Z,30.23
2019-03-18T10:17:21.715Z,29.10
2019-03-18T10:19:53.557Z,33.50
2019-03-18T10:22:24.580Z,30.15
2019-03-18T10:24:55.369Z,29.02
2019-03-18T10:27:26.292Z,28.70
2019-03-18T10:29:56.991Z,33.50
2019-03-18T10:32:27.687Z,29.52
2019-03-18T10:34:58.584Z,34.92
2019-03-18T10:37:29.238Z,31.10
2019-03-18T10:39:59.691Z,31.15
2019-03-18T10:42:30.564Z,30.23
2019-03-18T10:45:01.303Z,31.12
2019-03-18T10:47:32.087Z,27.42
2019-03-18T10:50:02.935Z,27.13
2019-03-18T10:52:34.164Z,28.35
2019-03-18T10:55:04.803Z,29.23
2019-03-18T10:57:35.467Z,27.55
2019-03-18T11:00:08.229Z,30.00
2019-03-18T11:02:39.298Z,31.55
2019-03-18T11:05:10.375Z,29.48
2019-03-18T11:07:41.172Z,29.37
2019-03-18T11:10:15.687Z,27.87
2019-03-18T11:12:46.228Z,27.02
2019-03-18T11:15:18.124Z,29.98
2019-03-18T11:17:48.681Z,28.20
2019-03-18T11:20:19.615Z,28.55
2019-03-18T11:22:50.210Z,32.23
2019-03-18T11:25:22.387Z,30.15
2019-03-18T11:27:52.789Z,29.55
2019-03-18T11:30:23.455Z,31.42
2019-03-18T11:32:54.029Z,29.30
2019-03-18T11:35:24.419Z,35.13
2019-03-18T11:37:54.934Z,29.50
2019-03-18T11:40:25.599Z,28.67
2019-03-18T11:42:57.056Z,30.90
2019-03-18T11:45:27.451Z,28.77
2019-03-18T11:47:58.119Z,28.87
2019-03-18T11:50:28.528Z,32.17
2019-03-18T11:52:58.929Z,33.92
2019-03-18T11:55:29.678Z,28.35
2019-03-18T11:58:00.264Z,28.25
2019-03-18T12:00:30.651Z,29.15
2019-03-18T12:03:01.320Z,29.12
2019-03-18T12:05:32.043Z,28.23
2019-03-18T12:08:02.561Z,30.72
2019-03-18T12:10:33.111Z,31.15
2019-03-18T12:13:03.495Z,28.80
2019-03-18T12:15:36.408Z,27.10
2019-03-18T12:18:06.033Z,28.55
2019-03-18T12:20:36.420Z,28.90
2019-03-18T12:23:11.779Z,29.12
2019-03-18T12:25:45.024Z,27.98
2019-03-18T12:28:15.685Z,29.45
2019-03-18T12:30:46.110Z,27.93
2019-03-18T12:33:16.543Z,29.80
2019-03-18T12:35:47.471Z,28.25
2019-03-18T12:38:18.255Z,25.20
2019-03-18T12:40:48.660Z,23.65
2019-03-18T12:43:19.254Z,25.50
2019-03-18T12:45:49.675Z,22.50
2019-03-18T12:48:20.109Z,24.77
2019-03-18T12:50:56.183Z,22.13
2019-03-18T12:53:23.098Z,26.82
2019-03-18T12:55:54.489Z,28.65
2019-03-18T12:58:26.404Z,23.60
2019-03-18T13:00:56.795Z,22.65
2019-03-18T13:03:27.365Z,22.22
2019-03-18T13:05:57.771Z,21.42
2019-03-18T13:08:37.044Z,22.25
2019-03-18T13:11:07.610Z,24.37
2019-03-18T13:16:30.592Z,26.60
2019-03-18T13:19:00.995Z,22.27
2019-03-18T13:21:32.771Z,21.95
2019-03-18T13:24:03.364Z,23.10
2019-03-18T13:26:58.514Z,23.42
2019-03-18T13:29:27.362Z,25.80
2019-03-18T13:31:57.774Z,25.85
2019-03-18T13:34:28.275Z,23.22
2019-03-18T13:36:58.862Z,24.70
2019-03-18T13:39:29.265Z,24.02
2019-03-18T13:41:59.690Z,25.92
2019-03-18T13:44:30.273Z,23.67
2019-03-18T13:47:01.986Z,22.70
2019-03-18T13:49:35.022Z,25.30
2019-03-18T13:52:08.125Z,26.80
2019-03-18T13:54:38.633Z,23.05
2019-03-18T13:57:09.034Z,25.27
2019-03-18T13:59:39.620Z,22.25
2019-03-18T14:02:10.044Z,25.20
2019-03-18T14:04:40.477Z,24.20
2019-03-18T14:07:11.183Z,28.35
2019-03-18T14:09:43.753Z,26.70
2019-03-18T14:12:17.933Z,31.82
2019-03-18T14:17:39.310Z,24.77
2019-03-18T14:20:12.267Z,23.98
2019-03-18T14:22:44.802Z,25.65
2019-03-18T14:25:15.732Z,25.97
2019-03-18T14:27:46.485Z,26.82
2019-03-18T14:30:19.777Z,27.27
2019-03-18T14:32:50.247Z,29.20
2019-03-18T14:35:22.032Z,23.15
2019-03-18T14:37:52.907Z,25.97
2019-03-18T14:40:24.313Z,28.45
2019-03-18T14:42:57.496Z,27.73
2019-03-18T14:45:28.148Z,25.85
2019-03-18T14:47:58.561Z,29.52
2019-03-18T14:50:28.999Z,25.32
2019-03-18T14:52:59.687Z,27.07
2019-03-18T14:55:30.196Z,25.92
2019-03-18T14:58:02.009Z,26.97
2019-03-18T15:00:33.386Z,25.65
2019-03-18T15:03:03.783Z,25.62
2019-03-18T15:05:36.908Z,25.65
2019-03-18T15:08:06.527Z,25.12
2019-03-18T15:10:37.435Z,25.90
2019-03-18T15:13:07.830Z,27.07
2019-03-18T15:15:38.401Z,27.75
2019-03-18T15:18:08.828Z,25.35
2019-03-18T15:20:39.237Z,30.02
2019-03-18T15:23:09.843Z,29.50
2019-03-18T15:25:41.372Z,27.90
2019-03-18T15:28:12.480Z,28.00
2019-03-18T15:30:43.060Z,26.70
2019-03-18T15:33:13.488Z,28.73
2019-03-18T15:35:44.115Z,27.58
2019-03-18T15:38:20.775Z,29.25
2019-03-18T15:40:54.625Z,27.67
2019-03-18T15:43:27.705Z,28.77
